Time;durP1;ratioP1;P1;durP2;ratioP2;P2;SDS_P1;SDS_P2;PMS_P1;PMS_P2;Temp;Humidity;BMP_temperature;BMP_pressure;BME280_temperature;BME280_humidity;BME280_pressure;Samples;Min_cycle;Max_cycle;Signal;HPM_P1;HPM_P2
2023/12/24 00:00:15;;;;;;;8.52;4.60;;;;;;;14.62;61.83;96389.00;5037241;28;20017;-24
2023/12/24 00:02:40;;;;;;;8.32;4.90;;;;;;;14.55;61.65;96383.06;5037211;28;20419;-23
2023/12/24 00:05:06;;;;;;;9.45;4.40;;;;;;;14.70;61.76;96379.31;5037050;28;20013;-24
2023/12/24 00:07:31;;;;;;;10.30;4.13;;;;;;;14.58;61.77;96390.38;5044278;28;20072;-24
2023/12/24 00:09:57;;;;;;;9.35;5.00;;;;;;;14.60;61.49;96393.38;5044217;28;20020;-24
2023/12/24 00:12:22;;;;;;;8.18;4.55;;;;;;;14.60;61.78;96391.41;5036384;28;20021;-24
2023/12/24 00:14:48;;;;;;;10.60;5.40;;;;;;;14.50;61.82;96398.06;5037464;28;20489;-23
2023/12/24 00:17:14;;;;;;;13.10;5.75;;;;;;;14.38;62.23;96396.97;5025946;28;20055;-24
2023/12/24 00:19:39;;;;;;;12.48;4.95;;;;;;;14.44;62.18;96399.88;5036959;28;20032;-24
2023/12/24 00:22:07;;;;;;;11.65;5.10;;;;;;;14.44;62.01;96397.16;5038356;28;20040;-24
2023/12/24 00:24:33;;;;;;;11.05;4.93;;;;;;;14.37;61.87;96398.16;5047588;28;20487;-24
2023/12/24 00:26:58;;;;;;;11.25;4.57;;;;;;;14.54;61.29;96395.97;5046368;28;20037;-24
2023/12/24 00:29:24;;;;;;;10.55;5.13;;;;;;;14.37;61.35;96400.13;5039699;28;20066;-24
2023/12/24 00:31:49;;;;;;;13.23;4.63;;;;;;;14.45;61.26;96406.09;5040340;28;20021;-23
2023/12/24 00:34:15;;;;;;;9.57;3.92;;;;;;;14.53;60.78;96399.91;5037366;28;20108;-24
2023/12/24 00:36:40;;;;;;;10.52;5.30;;;;;;;14.55;60.88;96400.22;5043496;28;20025;-24
2023/12/24 00:39:06;;;;;;;10.38;4.30;;;;;;;14.58;60.57;96402.03;5043504;28;20025;-24
2023/12/24 00:41:31;;;;;;;12.48;5.18;;;;;;;14.55;60.57;96402.94;5036817;28;20040;-24
2023/12/24 00:43:57;;;;;;;12.38;4.78;;;;;;;14.55;60.40;96399.44;5036549;28;20071;-24
2023/12/24 00:46:22;;;;;;;14.23;5.38;;;;;;;14.54;60.37;96404.16;5037082;28;20021;-24
2023/12/24 00:48:47;;;;;;;12.27;4.90;;;;;;;14.50;60.95;96398.06;5043657;28;20111;-24
2023/12/24 00:51:13;;;;;;;14.05;4.88;;;;;;;14.50;60.65;96397.31;5036287;28;20017;-24
2023/12/24 00:53:38;;;;;;;13.38;5.03;;;;;;;14.65;60.51;96403.69;5043190;28;20017;-24
2023/12/24 00:56:04;;;;;;;17.58;4.93;;;;;;;14.44;61.01;96404.59;5036410;28;20101;-24
2023/12/24 00:58:29;;;;;;;12.20;3.88;;;;;;;14.31;61.19;96404.69;5036135;28;20160;-24
2023/12/24 01:00:55;;;;;;;10.10;3.53;;;;;;;14.47;60.50;96409.88;5036071;28;20013;-24
2023/12/24 01:03:21;;;;;;;13.48;4.03;;;;;;;14.38;60.86;96409.84;5035491;28;20565;-24
2023/12/24 01:05:47;;;;;;;14.20;4.15;;;;;;;14.54;60.64;96411.56;5044829;28;20032;-24
2023/12/24 01:08:13;;;;;;;15.32;4.63;;;;;;;14.51;60.52;96415.97;5046191;28;20088;-24
2023/12/24 01:10:38;;;;;;;13.35;4.10;;;;;;;14.49;60.74;96417.63;5038584;28;20017;-24
2023/12/24 01:13:04;;;;;;;14.43;3.80;;;;;;;14.52;60.45;96422.19;5035479;28;20032;-24
2023/12/24 01:15:29;;;;;;;12.40;4.15;;;;;;;14.46;60.57;96429.47;5035897;28;20032;-24
2023/12/24 01:17:55;;;;;;;13.52;4.65;;;;;;;14.57;60.32;96430.53;5025351;28;20025;-24
2023/12/24 01:20:21;;;;;;;16.38;4.72;;;;;;;14.43;61.04;96442.03;5042299;28;20025;-24
2023/12/24 01:22:46;;;;;;;17.52;4.82;;;;;;;14.46;61.21;96441.13;5042058;28;20036;-24
2023/12/24 01:25:12;;;;;;;13.85;4.07;;;;;;;14.51;60.77;96437.78;5043624;28;20064;-24
2023/12/24 01:27:38;;;;;;;16.40;5.88;;;;;;;14.39;61.83;96446.81;5035199;28;20360;-24
2023/12/24 01:30:04;;;;;;;8.70;4.30;;;;;;;14.42;61.88;96437.78;5043584;28;20025;-24
2023/12/24 01:32:29;;;;;;;9.30;4.20;;;;;;;14.46;61.68;96443.09;5035057;28;20021;-24
2023/12/24 01:34:55;;;;;;;17.98;5.40;;;;;;;14.39;61.74;96430.47;5041572;28;20032;-24
2023/12/24 01:37:20;;;;;;;12.55;4.15;;;;;;;14.38;62.01;96439.84;5037476;28;20036;-24
2023/12/24 01:39:46;;;;;;;13.45;3.97;;;;;;;14.54;61.28;96430.69;5041032;28;20036;-24
2023/12/24 01:42:11;;;;;;;17.50;4.15;;;;;;;14.42;61.63;96435.03;5035742;28;20029;-24
2023/12/24 01:44:37;;;;;;;20.13;4.10;;;;;;;14.50;61.55;96438.25;5035526;28;20024;-24
2023/12/24 01:47:02;;;;;;;15.75;4.78;;;;;;;14.14;62.82;96436.91;5035160;28;20541;-24
2023/12/24 01:49:28;;;;;;;18.83;4.18;;;;;;;14.38;62.11;96439.84;5035121;28;20037;-23
2023/12/24 01:51:55;;;;;;;17.25;4.30;;;;;;;14.46;61.52;96430.22;5041762;28;20128;-24
2023/12/24 01:54:21;;;;;;;20.52;4.75;;;;;;;14.41;62.11;96439.00;5034357;28;20017;-24
2023/12/24 01:56:48;;;;;;;18.55;4.40;;;;;;;14.58;61.35;96431.31;5042372;28;20028;-24
2023/12/24 01:59:14;;;;;;;19.35;4.45;;;;;;;14.63;61.10;96431.44;5034509;28;20026;-24
2023/12/24 02:01:40;;;;;;;18.52;4.70;;;;;;;14.53;61.52;96429.16;5017794;28;20386;-24
2023/12/24 02:04:05;;;;;;;21.00;4.50;;;;;;;14.62;61.12;96429.16;5038013;28;20012;-24
2023/12/24 02:06:32;;;;;;;16.55;4.10;;;;;;;14.51;61.08;96431.56;5044989;28;20052;-24
2023/12/24 02:08:57;;;;;;;18.42;4.18;;;;;;;14.67;60.42;96437.53;5034732;28;20074;-24
2023/12/24 02:11:23;;;;;;;17.10;4.38;;;;;;;14.55;60.92;96434.94;5035137;28;20021;-24
2023/12/24 02:13:49;;;;;;;15.02;3.80;;;;;;;14.63;60.70;96433.41;5035225;28;20024;-24
2023/12/24 02:16:20;;;;;;;17.23;4.85;;;;;;;14.60;60.68;96429.63;5034253;28;20025;-24
2023/12/24 02:18:46;;;;;;;13.85;4.28;;;;;;;14.30;61.43;96430.44;5041504;28;20113;-24
2023/12/24 02:21:11;;;;;;;12.27;4.63;;;;;;;14.38;61.25;96434.41;5039488;28;20100;-24
2023/12/24 02:23:36;;;;;;;11.65;4.25;;;;;;;14.45;61.05;96434.16;5034859;28;20026;-24
2023/12/24 02:26:31;;;;;;;12.88;4.45;;;;;;;14.42;60.94;96440.50;5034798;28;20044;-24
2023/12/24 02:29:11;;;;;;;10.63;4.45;;;;;;;14.50;60.76;96424.59;5007622;28;20112;-24
2023/12/24 02:31:41;;;;;;;10.43;4.15;;;;;;;14.29;61.10;96432.41;5020059;28;20462;-24
2023/12/24 02:34:08;;;;;;;8.27;3.70;;;;;;;14.23;61.39;96433.44;5043483;28;20036;-24
2023/12/24 02:36:34;;;;;;;10.70;4.43;;;;;;;14.23;61.41;96436.16;5034518;28;20108;-24
2023/12/24 02:38:59;;;;;;;9.90;4.90;;;;;;;14.40;60.94;96448.38;5034498;28;20108;-24
2023/12/24 02:41:25;;;;;;;12.23;4.65;;;;;;;14.41;60.81;96436.25;5035197;28;20082;-24
2023/12/24 02:43:50;;;;;;;11.77;4.55;;;;;;;14.44;60.82;96443.53;5034783;28;20119;-24
2023/12/24 02:46:16;;;;;;;12.98;5.70;;;;;;;14.30;61.08;96433.16;5034610;28;20025;-24
2023/12/24 02:48:41;;;;;;;13.80;6.38;;;;;;;14.44;60.71;96443.53;5049036;28;20076;-24
2023/12/24 02:51:06;;;;;;;13.40;5.00;;;;;;;14.28;61.32;96439.06;5041487;28;20025;-24
2023/12/24 02:53:32;;;;;;;12.20;5.68;;;;;;;14.33;61.10;96445.91;5034652;28;20151;-24
2023/12/24 02:55:59;;;;;;;13.90;5.28;;;;;;;14.27;61.42;96437.56;5034235;28;20063;-24
2023/12/24 02:58:25;;;;;;;13.23;5.28;;;;;;;14.24;61.33;96435.72;5034170;28;20048;-24
2023/12/24 03:00:50;;;;;;;10.27;4.80;;;;;;;14.16;61.87;96426.31;5041443;28;20470;-24
2023/12/24 03:03:16;;;;;;;12.55;4.63;;;;;;;14.21;61.46;96411.31;5039424;28;20025;-24
2023/12/24 03:05:41;;;;;;;11.43;4.90;;;;;;;14.38;61.11;96426.22;5039447;28;20060;-24
2023/12/24 03:08:07;;;;;;;13.70;4.78;;;;;;;14.24;61.66;96421.31;5044412;28;20028;-24
2023/12/24 03:10:32;;;;;;;11.00;4.43;;;;;;;14.36;61.27;96420.44;5038151;28;20017;-24
2023/12/24 03:12:57;;;;;;;14.75;3.85;;;;;;;14.30;61.33;96430.44;5039716;28;20082;-24
2023/12/24 03:15:23;;;;;;;15.88;5.35;;;;;;;14.28;61.46;96425.44;5043297;28;20021;-24
2023/12/24 03:17:48;;;;;;;12.80;3.58;;;;;;;14.38;61.65;96429.69;5045532;28;20021;-24
2023/12/24 03:20:14;;;;;;;15.88;4.85;;;;;;;14.37;61.19;96422.72;5037852;28;20378;-24
2023/12/24 03:22:39;;;;;;;12.85;4.13;;;;;;;14.37;61.38;96421.97;5037669;28;20108;-24
2023/12/24 03:25:05;;;;;;;11.40;4.15;;;;;;;14.29;61.39;96429.69;5038126;28;20018;-24
2023/12/24 03:27:30;;;;;;;12.13;5.05;;;;;;;14.32;61.35;96428.03;5044987;28;20367;-24
2023/12/24 03:29:55;;;;;;;15.02;4.13;;;;;;;14.44;61.22;96426.41;5037982;28;20025;-24
2023/12/24 03:32:21;;;;;;;16.95;4.13;;;;;;;14.30;61.30;96435.91;5037977;28;20025;-24
2023/12/24 03:34:46;;;;;;;16.40;4.30;;;;;;;14.37;61.53;96432.88;5028775;28;20025;-24
2023/12/24 03:37:12;;;;;;;17.30;4.10;;;;;;;14.47;61.41;96430.94;5038474;28;20423;-24
2023/12/24 03:39:37;;;;;;;15.55;4.05;;;;;;;14.49;61.20;96423.84;5037575;28;20433;-24
2023/12/24 03:42:03;;;;;;;18.63;5.07;;;;;;;14.32;61.65;96434.25;5037888;28;20017;-24
2023/12/24 03:44:28;;;;;;;14.00;4.57;;;;;;;14.31;61.77;96426.50;5045030;28;20095;-24
2023/12/24 03:46:53;;;;;;;21.40;6.28;;;;;;;14.37;61.52;96427.41;5044692;28;20025;-24
2023/12/24 03:49:20;;;;;;;15.38;5.78;;;;;;;14.33;61.66;96443.19;5027414;28;20395;-24
2023/12/24 03:51:47;;;;;;;15.75;5.32;;;;;;;14.39;61.88;96444.09;5037414;28;20454;-24
2023/12/24 03:54:12;;;;;;;12.70;4.28;;;;;;;14.27;61.96;96420.41;5036759;28;20043;-24
2023/12/24 03:56:38;;;;;;;8.65;4.20;;;;;;;14.48;61.26;96411.41;5044823;28;20463;-24
2023/12/24 03:59:03;;;;;;;9.13;4.10;;;;;;;14.41;61.27;96435.50;5036631;28;20470;-24
2023/12/24 04:01:29;;;;;;;10.93;3.38;;;;;;;14.44;61.51;96443.53;5040149;28;20367;-24
2023/12/24 04:03:54;;;;;;;11.30;3.83;;;;;;;14.43;61.35;96458.41;5037034;28;20018;-24
2023/12/24 04:06:20;;;;;;;11.82;3.90;;;;;;;14.32;61.88;96447.88;5043206;28;20025;-24
2023/12/24 04:08:45;;;;;;;14.43;4.28;;;;;;;14.34;62.01;96444.72;5039517;28;20426;-24
2023/12/24 04:11:15;;;;;;;9.38;3.67;;;;;;;14.24;61.99;96445.88;5042908;28;20021;-24
2023/12/24 04:13:41;;;;;;;12.18;3.40;;;;;;;14.23;62.30;96442.38;5043447;28;20025;-24
2023/12/24 04:16:07;;;;;;;8.88;3.47;;;;;;;14.36;61.99;96434.09;5036948;28;20051;-24
2023/12/24 04:18:32;;;;;;;8.55;3.22;;;;;;;14.22;62.14;96445.56;5037052;28;20025;-24
2023/12/24 04:20:58;;;;;;;6.15;2.80;;;;;;;14.39;61.61;96435.91;5036962;28;20072;-24
2023/12/24 04:23:23;;;;;;;8.30;3.55;;;;;;;14.25;62.01;96441.94;5036314;28;20060;-24
2023/12/24 04:25:49;;;;;;;7.90;3.45;;;;;;;14.48;61.09;96438.69;5043662;28;20055;-24
2023/12/24 04:28:15;;;;;;;11.45;4.03;;;;;;;14.43;61.37;96444.00;5036804;28;20429;-24
2023/12/24 04:30:40;;;;;;;9.45;3.42;;;;;;;14.40;61.38;96444.88;5043848;28;20076;-23
2023/12/24 04:33:06;;;;;;;8.70;3.30;;;;;;;14.37;61.62;96438.34;5037235;28;20024;-24
2023/12/24 04:35:31;;;;;;;10.02;3.65;;;;;;;14.34;61.65;96444.72;5036439;28;20108;-24
2023/12/24 04:37:57;;;;;;;7.75;3.30;;;;;;;14.31;61.69;96431.97;5036524;28;20021;-24
2023/12/24 04:40:23;;;;;;;9.18;3.75;;;;;;;14.42;61.04;96432.31;5044186;28;20029;-24
2023/12/24 04:42:48;;;;;;;7.22;2.60;;;;;;;14.34;61.04;96431.06;5043183;28;20032;-24
2023/12/24 04:45:13;;;;;;;9.90;3.05;;;;;;;14.33;60.98;96418.63;5036818;28;20028;-24
2023/12/24 04:47:39;;;;;;;7.32;2.70;;;;;;;14.33;60.96;96421.38;5039732;28;20025;-24
2023/12/24 04:50:05;;;;;;;13.55;3.15;;;;;;;14.44;60.95;96416.25;5040629;28;20034;-24
2023/12/24 04:52:35;;;;;;;11.07;3.47;;;;;;;14.30;61.06;96422.25;5043221;28;20438;-23
2023/12/24 04:55:02;;;;;;;16.13;2.90;;;;;;;14.39;60.83;96422.28;5036386;28;20532;-24
2023/12/24 04:57:28;;;;;;;13.18;3.22;;;;;;;14.29;61.08;96418.78;5036117;28;20025;-24
2023/12/24 04:59:53;;;;;;;20.65;3.67;;;;;;;14.26;60.87;96427.09;5036271;28;20474;-24
2023/12/24 05:02:19;;;;;;;16.05;3.63;;;;;;;14.27;61.14;96429.38;5036016;28;20075;-24
2023/12/24 05:04:44;;;;;;;20.25;3.97;;;;;;;14.33;60.63;96438.50;5037493;28;20021;-24
2023/12/24 05:07:09;;;;;;;18.92;3.42;;;;;;;14.34;60.88;96444.72;5049502;28;20030;-24
2023/12/24 05:09:35;;;;;;;20.42;3.53;;;;;;;14.29;61.06;96437.09;5042648;28;20014;-24
2023/12/24 05:12:00;;;;;;;16.08;3.10;;;;;;;14.28;60.88;96441.03;5035835;28;20025;-24
2023/12/24 05:14:26;;;;;;;16.25;3.88;;;;;;;14.24;60.77;96438.44;5035342;28;20022;-24
2023/12/24 05:16:51;;;;;;;15.18;3.25;;;;;;;14.40;60.82;96442.91;5035916;28;20028;-24
2023/12/24 05:19:17;;;;;;;12.90;3.20;;;;;;;14.33;60.79;96438.50;5042398;28;20540;-24
2023/12/24 05:21:42;;;;;;;14.77;3.03;;;;;;;14.23;61.08;96442.38;5041973;28;20036;-24
2023/12/24 05:24:08;;;;;;;11.15;2.90;;;;;;;14.03;61.75;96448.22;5036666;28;20036;-24
2023/12/24 05:26:33;;;;;;;5.90;2.60;;;;;;;14.09;61.34;96440.22;5034581;28;20018;-24
2023/12/24 05:28:58;;;;;;;9.93;3.00;;;;;;;14.25;60.92;96458.31;5035009;28;20059;-24
2023/12/24 05:31:24;;;;;;;7.28;2.70;;;;;;;14.31;60.59;96451.81;5045765;28;20013;-24
2023/12/24 05:33:49;;;;;;;9.85;3.85;;;;;;;14.17;60.87;96454.34;5039712;28;20375;-24
2023/12/24 05:36:15;;;;;;;6.90;3.30;;;;;;;14.20;61.01;96469.81;5042163;28;20479;-24
2023/12/24 05:38:40;;;;;;;5.78;2.47;;;;;;;14.11;61.46;96464.28;5035005;28;20341;-24
2023/12/24 05:41:10;;;;;;;7.47;2.70;;;;;;;14.26;61.16;96474.22;5035424;28;20030;-23
2023/12/24 05:43:36;;;;;;;8.52;2.83;;;;;;;14.27;61.16;96473.00;5042935;28;20032;-24
2023/12/24 05:46:02;;;;;;;8.27;2.80;;;;;;;14.04;61.87;96481.72;5035313;28;20028;-23
2023/12/24 05:48:27;;;;;;;7.53;2.95;;;;;;;14.33;61.31;96495.03;5035108;28;20017;-24
2023/12/24 05:50:53;;;;;;;8.65;3.15;;;;;;;14.17;61.67;96490.56;5035206;28;20352;-24
2023/12/24 05:53:18;;;;;;;7.47;2.75;;;;;;;14.19;61.72;96487.38;5034653;28;20390;-24
2023/12/24 05:55:43;;;;;;;8.27;2.75;;;;;;;14.20;61.91;96491.63;5035297;28;20071;-24
2023/12/24 05:58:09;;;;;;;6.72;3.03;;;;;;;14.26;61.77;96492.56;5034463;28;20467;-24
2023/12/24 06:00:35;;;;;;;8.25;2.50;;;;;;;14.30;61.51;96504.09;5035760;28;20537;-24
2023/12/24 06:03:02;;;;;;;8.63;2.70;;;;;;;14.24;61.93;96500.41;5041789;28;20029;-24
2023/12/24 06:05:27;;;;;;;5.55;2.42;;;;;;;14.23;62.16;96507.09;5034942;28;20066;-24
2023/12/24 06:07:53;;;;;;;11.02;2.92;;;;;;;14.28;62.33;96514.69;5043206;28;20024;-24
2023/12/24 06:10:18;;;;;;;8.70;2.85;;;;;;;14.24;62.23;96511.34;5034849;28;20009;-24
2023/12/24 06:12:51;;;;;;;8.02;2.83;;;;;;;14.29;62.04;96519.72;5042244;28;20052;-24
2023/12/24 06:15:17;;;;;;;7.93;2.80;;;;;;;14.25;62.00;96518.31;5041778;28;20475;-24
2023/12/24 06:17:42;;;;;;;6.85;2.67;;;;;;;14.33;61.84;96533.22;5040970;28;20036;-24
2023/12/24 06:20:09;;;;;;;9.38;2.65;;;;;;;14.33;61.77;96533.22;5034916;28;20104;-24
2023/12/24 06:22:34;;;;;;;8.52;2.80;;;;;;;14.29;61.96;96530.63;5034021;28;20045;-24
2023/12/24 06:25:00;;;;;;;8.23;2.90;;;;;;;14.26;62.16;96534.22;5035185;28;20510;-24
2023/12/24 06:27:25;;;;;;;6.13;2.80;;;;;;;14.31;61.86;96538.34;5037544;28;20466;-24
2023/12/24 06:29:50;;;;;;;7.93;2.28;;;;;;;14.34;61.67;96532.00;5020391;28;20029;-24
2023/12/24 06:32:16;;;;;;;7.65;2.50;;;;;;;14.16;62.08;96531.91;5041563;28;20032;-24
2023/12/24 06:34:41;;;;;;;8.48;2.67;;;;;;;14.29;61.67;96535.31;5034096;28;20029;-23
2023/12/24 06:37:08;;;;;;;8.73;2.70;;;;;;;14.26;61.78;96536.19;5035265;28;20041;-24
2023/12/24 06:39:33;;;;;;;4.15;2.50;;;;;;;14.13;61.76;96530.84;5033680;28;20036;-24
2023/12/24 06:41:59;;;;;;;5.28;2.40;;;;;;;14.15;61.43;96541.31;5034738;28;20022;-24
2023/12/24 06:44:24;;;;;;;5.53;2.55;;;;;;;14.09;61.96;96537.63;5041916;28;20040;-24
2023/12/24 06:46:50;;;;;;;5.22;2.25;;;;;;;14.07;61.66;96535.34;5034518;28;20510;-24
2023/12/24 06:49:15;;;;;;;4.40;2.08;;;;;;;14.07;61.98;96535.34;5041635;28;20045;-24
2023/12/24 06:51:40;;;;;;;7.50;2.45;;;;;;;14.11;61.54;96533.25;5034999;28;20024;-24
2023/12/24 06:54:06;;;;;;;7.20;2.85;;;;;;;14.18;61.52;96538.44;5033831;28;20052;-24
2023/12/24 06:56:31;;;;;;;7.88;2.70;;;;;;;14.03;61.99;96534.72;5035096;28;20467;-24
2023/12/24 06:58:57;;;;;;;10.07;3.30;;;;;;;14.17;61.67;96541.63;5040361;28;20049;-24
2023/12/24 07:01:22;;;;;;;9.23;4.20;;;;;;;14.12;61.93;96542.94;5041261;28;20100;-24
2023/12/24 07:03:48;;;;;;;9.82;4.38;;;;;;;14.16;61.96;96548.28;5035052;28;20108;-24
2023/12/24 07:06:13;;;;;;;7.85;4.38;;;;;;;14.12;61.97;96547.63;5034130;28;20135;-24
2023/12/24 07:08:39;;;;;;;8.95;4.72;;;;;;;14.21;61.91;96559.38;5034442;28;20344;-24
2023/12/24 07:11:04;;;;;;;11.20;4.68;;;;;;;14.24;61.87;96571.34;5041293;28;20033;-24
2023/12/24 07:13:30;;;;;;;7.90;3.90;;;;;;;14.19;61.73;96567.25;5039955;28;20024;-24
2023/12/24 07:15:57;;;;;;;8.80;3.65;;;;;;;14.19;62.02;96575.44;5035173;28;20029;-24
2023/12/24 07:18:22;;;;;;;6.32;3.10;;;;;;;14.25;61.64;96573.63;5034134;28;20025;-24
2023/12/24 07:20:48;;;;;;;9.68;3.58;;;;;;;14.26;61.64;96568.94;5034542;28;20547;-24
2023/12/24 07:23:13;;;;;;;8.10;3.40;;;;;;;14.22;61.72;96565.56;5036079;28;20029;-24
2023/12/24 07:25:38;;;;;;;5.78;3.38;;;;;;;14.12;62.08;96561.28;5038928;28;20378;-24
2023/12/24 07:28:04;;;;;;;8.20;2.47;;;;;;;14.36;61.34;96563.06;5040893;28;20460;-24
2023/12/24 07:30:30;;;;;;;10.55;3.15;;;;;;;14.19;62.08;96564.50;5041503;28;20422;-24
2023/12/24 07:32:55;;;;;;;9.80;2.70;;;;;;;14.13;62.38;96562.78;5033945;28;20044;-24
2023/12/24 07:35:21;;;;;;;11.48;3.15;;;;;;;14.31;62.09;96554.72;5034399;28;20028;-24
2023/12/24 07:37:47;;;;;;;14.80;3.50;;;;;;;14.41;61.89;96559.03;5040792;28;20117;-24
2023/12/24 07:40:12;;;;;;;12.98;3.10;;;;;;;14.31;62.23;96557.44;5041200;28;20471;-24
2023/12/24 07:42:38;;;;;;;14.80;3.10;;;;;;;14.30;62.10;96556.69;5033344;28;20071;-24
2023/12/24 07:45:04;;;;;;;12.65;2.67;;;;;;;14.26;62.08;96571.66;5034482;28;20033;-24
2023/12/24 07:47:30;;;;;;;14.30;3.97;;;;;;;14.34;62.12;96578.38;5036013;28;20029;-24
2023/12/24 07:49:55;;;;;;;13.27;3.47;;;;;;;14.40;61.79;96584.81;5043730;28;20083;-24
2023/12/24 07:52:21;;;;;;;11.07;3.28;;;;;;;14.54;61.69;96592.44;5039354;28;20052;-24
2023/12/24 07:54:46;;;;;;;17.85;3.30;;;;;;;14.45;61.91;96592.41;5044874;28;20021;-24
2023/12/24 07:57:12;;;;;;;17.33;4.00;;;;;;;14.43;61.84;96592.09;5037601;28;20147;-24
2023/12/24 07:59:37;;;;;;;19.63;5.03;;;;;;;14.53;61.68;96590.16;5037397;28;20103;-24
2023/12/24 08:02:03;;;;;;;16.88;4.97;;;;;;;14.42;62.28;96598.75;5037456;28;20433;-24
2023/12/24 08:04:28;;;;;;;13.10;4.53;;;;;;;14.46;62.26;96596.66;5036652;28;20026;-24
2023/12/24 08:06:54;;;;;;;15.77;3.85;;;;;;;14.19;62.94;96601.94;5044698;28;20027;-24
2023/12/24 08:09:19;;;;;;;16.23;4.45;;;;;;;14.40;62.28;96593.00;5042072;28;20039;-24
2023/12/24 08:11:44;;;;;;;18.17;3.72;;;;;;;14.36;62.35;96595.81;5046967;28;20021;-24
2023/12/24 08:14:10;;;;;;;15.80;3.80;;;;;;;14.31;62.59;96584.72;5037531;28;20478;-24
2023/12/24 08:16:35;;;;;;;20.08;4.10;;;;;;;14.35;62.43;96585.34;5036569;28;20028;-24
2023/12/24 08:19:02;;;;;;;15.55;3.42;;;;;;;14.35;62.37;96593.53;5038032;28;20521;-24
2023/12/24 08:21:28;;;;;;;15.30;3.13;;;;;;;14.29;62.66;96606.25;5041941;28;20018;-24
2023/12/24 08:23:53;;;;;;;17.10;3.25;;;;;;;14.41;62.45;96597.25;5043832;28;20543;-24
2023/12/24 08:26:19;;;;;;;23.15;4.57;;;;;;;14.26;63.20;96601.66;5036470;28;20390;-24
2023/12/24 08:28:44;;;;;;;20.20;4.13;;;;;;;14.35;63.39;96609.91;5036976;28;20364;-24
2023/12/24 08:31:13;;;;;;;19.73;4.95;;;;;;;14.44;62.89;96604.53;5044657;28;20091;-23
2023/12/24 08:33:38;;;;;;;17.20;3.28;;;;;;;14.25;63.87;96619.25;5042939;28;20463;-24
2023/12/24 08:36:04;;;;;;;14.05;3.35;;;;;;;14.48;63.11;96610.59;5043141;28;20028;-24
2023/12/24 08:38:32;;;;;;;17.05;3.13;;;;;;;14.61;62.83;96627.66;5036970;28;20022;-24
2023/12/24 08:40:58;;;;;;;17.63;3.88;;;;;;;14.60;62.67;96630.81;5035827;28;20025;-24
2023/12/24 08:43:23;;;;;;;18.50;3.47;;;;;;;14.59;63.46;96640.97;5036679;28;20030;-24
2023/12/24 08:45:48;;;;;;;15.70;3.42;;;;;;;14.79;62.09;96643.38;5036683;28;20032;-24
2023/12/24 08:48:14;;;;;;;16.23;3.67;;;;;;;14.58;63.06;96647.69;5043742;28;20025;-24
2023/12/24 08:50:39;;;;;;;19.13;3.55;;;;;;;14.66;62.64;96653.63;5043522;28;20173;-24
2023/12/24 08:53:05;;;;;;;18.45;2.92;;;;;;;14.59;63.06;96662.81;5036138;28;20091;-24
2023/12/24 08:55:30;;;;;;;16.33;3.42;;;;;;;14.59;62.86;96651.91;5036887;28;20018;-24
2023/12/24 08:57:56;;;;;;;17.63;3.00;;;;;;;14.54;63.05;96659.91;5035659;28;20017;-24
2023/12/24 09:00:21;;;;;;;16.73;3.33;;;;;;;14.60;63.41;96663.56;5036331;28;20013;-24
2023/12/24 09:02:47;;;;;;;19.85;3.53;;;;;;;14.56;63.48;96666.47;5042795;28;20078;-24
2023/12/24 09:05:13;;;;;;;15.35;4.90;;;;;;;14.62;62.93;96663.91;5040649;28;20042;-24
2023/12/24 09:07:38;;;;;;;21.30;4.10;;;;;;;14.61;63.03;96679.50;5039076;28;20112;-24
2023/12/24 09:10:04;;;;;;;18.73;3.83;;;;;;;14.63;62.97;96679.84;5035816;28;20021;-24
2023/12/24 09:12:30;;;;;;;12.75;3.70;;;;;;;14.83;62.25;96678.72;5043391;28;20022;-24
2023/12/24 09:14:56;;;;;;;18.27;3.72;;;;;;;14.68;63.16;96681.22;5037255;28;20024;-24
2023/12/24 09:17:21;;;;;;;20.08;4.15;;;;;;;14.71;62.75;96683.81;5041935;28;20017;-24
2023/12/24 09:19:46;;;;;;;14.57;4.22;;;;;;;14.54;63.39;96682.50;5042879;28;20021;-24
2023/12/24 09:22:12;;;;;;;21.15;3.58;;;;;;;15.01;62.52;96687.00;5035595;28;20378;-24
2023/12/24 09:24:37;;;;;;;15.07;3.83;;;;;;;14.81;61.95;96678.41;5035184;28;20022;-24
2023/12/24 09:27:03;;;;;;;15.13;3.30;;;;;;;14.65;62.87;96688.34;5035941;28;20045;-24
2023/12/24 09:29:29;;;;;;;18.17;3.35;;;;;;;14.66;62.92;96691.84;5046688;28;20013;-24
2023/12/24 09:31:54;;;;;;;18.33;3.42;;;;;;;14.81;62.40;96689.34;5045494;28;20040;-24
2023/12/24 09:34:20;;;;;;;15.93;3.28;;;;;;;14.88;63.07;96689.06;5035620;28;20025;-24
2023/12/24 09:36:45;;;;;;;18.27;3.97;;;;;;;15.01;62.05;96692.44;5035547;28;20037;-24
2023/12/24 09:39:11;;;;;;;16.85;3.40;;;;;;;14.84;62.86;96699.34;5035207;28;20025;-24
2023/12/24 09:41:40;;;;;;;16.90;3.55;;;;;;;14.72;62.58;96698.22;5034945;28;20026;-24
2023/12/24 09:44:07;;;;;;;16.05;4.05;;;;;;;14.68;62.96;96703.84;5035301;28;20029;-24
2023/12/24 09:46:33;;;;;;;17.83;4.30;;;;;;;14.66;63.06;96703.50;5042307;28;20025;-24
2023/12/24 09:48:58;;;;;;;17.75;4.53;;;;;;;14.60;62.51;96702.56;5042293;28;20499;-24
2023/12/24 09:51:26;;;;;;;17.88;3.15;;;;;;;14.81;61.38;96705.72;5036244;28;20025;-24
2023/12/24 09:53:54;;;;;;;17.15;3.30;;;;;;;14.60;62.10;96702.56;5034711;28;20036;-24
2023/12/24 09:56:20;;;;;;;18.50;3.38;;;;;;;14.70;61.56;96701.41;5035101;28;20021;-24
2023/12/24 09:58:46;;;;;;;16.73;2.80;;;;;;;14.68;61.56;96698.38;5042607;28;20017;-24
2023/12/24 10:01:12;;;;;;;19.90;4.78;;;;;;;14.67;62.03;96691.38;5034891;28;20029;-24
2023/12/24 10:03:38;;;;;;;16.20;3.33;;;;;;;14.38;62.50;96699.06;5035045;28;20036;-23
2023/12/24 10:06:07;;;;;;;16.02;2.95;;;;;;;14.46;62.36;96681.25;5035139;28;20367;-24
2023/12/24 10:08:33;;;;;;;13.45;3.13;;;;;;;14.67;61.80;96685.16;5034268;28;20096;-24
2023/12/24 10:11:23;;;;;;;15.60;4.43;;;;;;;14.71;61.42;96692.00;5035512;28;20055;-24
2023/12/24 10:14:08;;;;;;;18.77;4.82;;;;;;;14.54;61.96;96700.84;5034520;28;20463;-24
2023/12/24 10:16:46;;;;;;;22.77;5.40;;;;;;;14.59;62.05;96684.66;5034104;28;20038;-24
2023/12/24 10:19:24;;;;;;;21.13;5.05;;;;;;;14.57;62.20;96686.31;5042193;28;20037;-24
2023/12/24 10:22:06;;;;;;;20.58;4.43;;;;;;;14.87;61.36;96693.00;5035211;28;20112;-24
2023/12/24 10:24:34;;;;;;;19.42;4.53;;;;;;;14.50;62.31;96686.56;5038606;28;20024;-24
2023/12/24 10:27:05;;;;;;;19.58;6.43;;;;;;;14.64;62.06;96675.91;5036218;28;20079;-24
2023/12/24 10:29:31;;;;;;;19.52;5.32;;;;;;;14.70;61.88;96682.31;5044723;28;20021;-24
2023/12/24 10:31:57;;;;;;;17.83;5.82;;;;;;;14.79;61.45;96672.63;5036979;28;20467;-24
2023/12/24 10:34:23;;;;;;;22.15;5.53;;;;;;;14.77;60.98;96669.59;5034472;28;20060;-24
2023/12/24 10:36:49;;;;;;;18.63;4.53;;;;;;;14.83;61.19;96659.63;5021637;28;20529;-24
2023/12/24 10:39:18;;;;;;;12.38;4.25;;;;;;;14.70;61.33;96663.19;5040801;28;20032;-24
2023/12/24 10:41:43;;;;;;;20.02;4.75;;;;;;;14.68;61.40;96660.16;5041445;28;20410;-24
2023/12/24 10:44:09;;;;;;;14.88;5.28;;;;;;;14.71;61.18;96653.78;5034250;28;20028;-24
2023/12/24 10:46:34;;;;;;;20.63;5.13;;;;;;;14.65;61.44;96652.09;5034812;28;20017;-24
2023/12/24 10:49:00;;;;;;;18.20;4.70;;;;;;;14.52;61.90;96645.97;5034446;28;20045;-24
2023/12/24 10:51:26;;;;;;;23.15;5.00;;;;;;;14.67;61.54;96647.72;5041849;28;20021;-24
2023/12/24 10:53:52;;;;;;;22.48;4.00;;;;;;;14.77;61.23;96645.00;5037456;28;20036;-24
2023/12/24 10:56:27;;;;;;;24.85;5.28;;;;;;;14.70;61.66;96646.06;5037816;28;20386;-24
2023/12/24 10:59:01;;;;;;;25.65;5.10;;;;;;;14.69;61.45;96639.84;5033801;28;20018;-24
2023/12/24 11:01:27;;;;;;;20.25;4.57;;;;;;;14.42;62.20;96625.28;5034343;28;20017;-24
2023/12/24 11:03:53;;;;;;;21.98;4.60;;;;;;;14.70;60.82;96635.16;5034216;28;20421;-24
2023/12/24 11:06:36;;;;;;;16.98;3.72;;;;;;;14.81;60.78;96621.06;5034278;28;20041;-24
2023/12/24 11:09:14;;;;;;;20.77;4.05;;;;;;;14.69;61.28;96614.50;5040762;28;20025;-24
2023/12/24 11:11:53;;;;;;;16.25;4.78;;;;;;;14.85;60.71;96608.78;5042239;28;20024;-24
2023/12/24 11:14:37;;;;;;;15.52;4.15;;;;;;;14.65;61.11;96603.72;5033564;28;20026;-24
2023/12/24 11:17:05;;;;;;;16.70;3.25;;;;;;;14.80;60.80;96595.75;5034505;28;20025;-24
2023/12/24 11:19:32;;;;;;;17.50;3.92;;;;;;;14.62;61.19;96606.56;5033478;28;20049;-24
2023/12/24 11:22:09;;;;;;;20.35;4.05;;;;;;;14.69;60.97;96598.91;5041304;28;20109;-24